Timeline UpdatesTrip UpdatesNews PostsPvt PostsTravel TipsAdmin PostsConv PostsFollowed PostsChat RequestsBlog PostsPNR Posts

Disclaimer
Search
 
 
Wed Jul 30, 2014 00:23:19 ISTHomeTrainsΣChainsAtlasPNRForumGalleryNewsFAQTripsMembersLoginFeedback
No Recent News for this Train
Other Trains in the News **new
Latest...
Cancelled upto 31/1/4 #978882
Thu Jan 30, 2014 (07:21PM)
⇐ Return Journey: Train# 55223

55536⇒55224/Darbhanga-Katihar Passenger (UnReserved)

Sep 25 2013 (10:36PM)
Change Departure Station:
Change Arrival Station:
Post a Train Travel TipPost a Train Travel Tip **new
Post a Comment/Question/Picture/VideoPost a Comment/Question/Picture/Video
Pantry/Catering
✕ NO Pantry Car
✕ NO Catering
RSA - Rake Sharing
Rake/Coach Composition
Loco
News    PNR    Forum    Time-Table    Availability    Fare Chart    Map    Arr/Dep History    Trips    Gallery    ΣChains    X/O    Timeline    
Travel Time: 3h 18m    15 halts    Distance: 124 km    Avg Speed: 37 km/hr
Type: Passenger
Zone: ECR/East Central
Departs @ 09:47 (Avg 17m late)
Platform# ???
SMTWTFS
Khagaria Junction/KGG 
Arrives @ 13:05 (Avg 1h 8m late)
Platform# 7
SMTWTFS
Katihar Junction/KIR 

15 halts. 18 intermediate Stations between Khagaria Junction and Katihar Junction

Show ALL intermediate Stations  Show Old Time-Table

#CodeStation NameX/OArrivesAvgDepartsAvgHaltPFDay#KmSpeedElevZoneAddress
1DBGDarbhanga Junction (5)  -03:15+5--1-141.43854mECRDarbhanga, Bihar
2LSILaheria Sarai (1)X  03:23+1003:28+155m11-136.45352mECRDarbhanga, Bihar
3TLWAThalwara  03:33+2203:35+222m--1-131.94556mECRDarbhanga, Bihar
4HYTHaiaghat  03:43+2203:45+232m--1-126.03451mECRDarbhanga, Bihar
5RBZRambhaddarpurX  03:54+2203:56+242m--1-120.95751mECRSamastipur, Bihar
6KSPKishanpur  04:03+2204:05+292m--1-114.25451mECRSamastipur, Bihar
7MKPRMuktapur (1)  04:12+3604:14+512m11-108.0653mECRSamastipur, Bihar
8SPJSamastipur Junction (9)XO  04:55+1105:45+350m--1-104.03955mECRSamastipur, Bihar
9UJPUjiarpur (2)  05:59+606:01+62m--1-94.95451mECRSamastipur, Bihar
10NAZJNazirGanj  06:08+606:10+62m--1-88.63651mECRNazirGanj, Bihar
11DSSDalsingh Sarai (2)X  06:23+606:25+62m21-80.83949mECR06278-221238, Bihar
12STJTSathajagatX  06:32+706:34+72m--1-76.22049mECRSathajagat, Bihar
13BCABachwara JunctionX  06:53+106:55+82m--1-69.81849mECRBegusarai, Bihar
14TGATeghra (3)  07:24-207:26+12m--1-60.81148mECRBegusarai, Bihar
15BUJBarauni Flag (2)  07:40-07:41-1m--1-58.33349mECRDistt: Begusarai, Bihar
16BJUBarauni Junction (9)  07:50+908:05+1215m21-53.32549mECRBegusarai, Bihar
17BEHTBihat Halt (2)  08:12-08:13-1m--1-50.44446mECRBihat Halt, Bihar
18TILTilrath (2)  08:18+208:20+52m--1-46.73146mECRNH 31, Bihar
19BGSBegu Sarai (3)X  08:33+708:35+122m--1-39.956 ECRBegusarai, Bihar
20LAKLakho  08:43+308:45+62m--1-32.53844mECRLakho, Bihar
21DPLDanauli PhulwariaX  08:53+108:55+52m--1-27.44042mECRDanauli Phlwria, Bihar
22LKNLakhminiaX  09:03+309:05+62m--1-22.16545mECRBegusarai, Bihar
23SKJSahibpur Kamal Junction (2)X  09:14+509:16+92m--1-12.43341mECRShahpur Kamal, Bihar
24UMNRUmeshnagar  09:26+609:28+92m--1-6.82941mECRNational Highway 31, Bihar
25KGG»Khagaria Junction (3)»X  09:42+1309:47+175m--10.04843mECRKhagaria, Bihar
26MNEMansi Junction (3)  09:58+1210:00+182m--18.85743mECRMansi, Bihar
27CDBNChedhabanni HaltX  10:05-10:06-1m--113.66842mECRChedhabanni, Bihar
28MSKMahes Khunt  10:11+1810:13+362m--119.24037mECRMaheshkhunt, Bihar
29GAIGauchhari  10:19+3510:21+492m--123.36240mECRGauchhari, Bihar
30PSRPasrahaX  10:29+5510:31+1:112m--131.64241mECRPasraha, Bihar
31BRKBBharat KhandX  10:40-10:41-1m--137.84634mECRBharat Khand, Bihar
32NNRNarayanpurXO  10:48+1:2010:50+1:202m--143.24639mECRNarayanpur, Bihar
33THBThana Bihpur Junction  11:00+1:1411:02+1:142m--150.88039mECRThana Bihpur, Bihar
34KHQKharik  11:08+1:0311:10+1:102m--158.85938mECRKharik, Bihar
35NNANaugachiaX  11:18+1:0211:20+1:022m--166.77437mECRBhagalpur, Bihar
36KTRHKatareah  11:29+1:3511:31+1:492m--177.8500mECRKumadpur, Bihar
37KUEKurselaO  11:40+2:0211:43+2:133m--185.28631mECRNH 31, Bihar
38BKHRBakhriO  11:51+1:5311:53+1:582m--196.83335mECRBakhri, Bihar
39CRRKaragola RoadX  12:03+2:3112:05+2:422m--1102.25036mECRLachhmipur, Bihar
40SMOSemapur  12:18+2:4112:20+2:452m--1113.01535mECRKatihar, Bihar
41KIR•Katihar Junction (7)•  13:05+1:08-71124.5-35mNFRKatihar 854105, Bihar
Scroll to Top
Scroll to Bottom